createdAt,value
2022-10-17T00:00:44.389Z,1.93
2022-10-17T00:03:14.384Z,2.43
2022-10-17T00:05:44.719Z,1.80
2022-10-17T00:08:15.202Z,2.07
2022-10-17T00:10:44.083Z,2.07
2022-10-17T00:13:13.778Z,1.73
2022-10-17T00:15:45.724Z,1.60
2022-10-17T00:18:15.136Z,1.77
2022-10-17T00:20:43.884Z,1.80
2022-10-17T00:23:11.980Z,1.80
2022-10-17T00:25:40.763Z,2.10
2022-10-17T00:28:11.021Z,2.03
2022-10-17T00:30:39.998Z,2.20
2022-10-17T00:33:08.711Z,2.03
2022-10-17T00:35:38.519Z,2.13
2022-10-17T00:38:07.002Z,2.03
2022-10-17T00:40:35.295Z,1.60
2022-10-17T00:43:03.516Z,2.10
2022-10-17T00:45:33.376Z,1.60
2022-10-17T00:48:08.655Z,1.80
2022-10-17T00:50:41.308Z,1.90
2022-10-17T00:53:10.784Z,1.70
2022-10-17T00:55:44.950Z,1.70
2022-10-17T00:58:13.792Z,1.83
2022-10-17T01:00:45.215Z,1.40
2022-10-17T01:03:13.584Z,1.40
2022-10-17T01:05:43.666Z,1.70
2022-10-17T01:08:13.572Z,1.43
2022-10-17T01:10:55.775Z,1.87
2022-10-17T01:13:35.141Z,1.80
2022-10-17T01:16:15.125Z,1.83
2022-10-17T01:19:02.007Z,2.03
2022-10-17T01:21:54.491Z,2.43
2022-10-17T01:25:18.323Z,1.70
2022-10-17T01:28:18.287Z,1.63
2022-10-17T01:31:13.438Z,1.93
2022-10-17T01:33:58.516Z,2.10
2022-10-17T01:36:38.691Z,2.10
2022-10-17T01:39:22.443Z,1.77
2022-10-17T01:42:01.273Z,1.90
2022-10-17T01:44:40.220Z,1.63
2022-10-17T01:47:14.798Z,2.00
2022-10-17T01:49:46.984Z,2.20
2022-10-17T01:52:20.888Z,1.80
2022-10-17T01:54:54.857Z,1.97
2022-10-17T01:57:32.193Z,2.10
2022-10-17T02:00:03.377Z,2.17
2022-10-17T02:02:46.414Z,1.53
2022-10-17T02:05:15.482Z,1.60
2022-10-17T02:07:43.558Z,2.20
2022-10-17T02:10:19.037Z,2.07
2022-10-17T02:12:56.069Z,2.10
2022-10-17T02:16:00.981Z,2.13
2022-10-17T02:18:56.255Z,1.80
2022-10-17T02:21:36.493Z,2.00
2022-10-17T02:24:19.299Z,2.43
2022-10-17T02:26:56.414Z,2.40
2022-10-17T02:29:34.219Z,2.27
2022-10-17T02:32:09.577Z,2.13
2022-10-17T02:34:44.495Z,2.47
2022-10-17T02:37:19.637Z,2.40
2022-10-17T02:39:51.675Z,1.97
2022-10-17T02:42:24.557Z,1.63
2022-10-17T02:44:55.599Z,1.97
2022-10-17T02:47:33.200Z,2.10
2022-10-17T02:50:04.284Z,1.63
2022-10-17T02:52:41.654Z,1.90
2022-10-17T02:55:19.433Z,2.00
2022-10-17T02:57:54.799Z,1.90
2022-10-17T03:00:26.432Z,2.00
2022-10-17T03:02:56.542Z,2.30
2022-10-17T03:05:29.992Z,2.03
2022-10-17T03:07:58.397Z,1.83
2022-10-17T03:10:27.070Z,2.00
2022-10-17T03:12:56.617Z,1.60
2022-10-17T03:15:27.661Z,1.70
2022-10-17T03:17:56.405Z,3.00
2022-10-17T03:20:26.328Z,2.37
2022-10-17T03:22:54.462Z,2.33
2022-10-17T03:25:23.798Z,1.70
2022-10-17T03:27:52.193Z,1.90
2022-10-17T03:30:20.914Z,1.50
2022-10-17T03:32:50.330Z,1.80
2022-10-17T03:35:19.117Z,1.97
2022-10-17T03:37:51.812Z,1.97
2022-10-17T03:40:22.429Z,1.60
2022-10-17T03:42:51.823Z,1.53
2022-10-17T03:45:20.298Z,2.17
2022-10-17T03:47:49.074Z,1.67
2022-10-17T03:50:18.230Z,2.70
2022-10-17T03:52:48.966Z,2.23
2022-10-17T03:55:20.045Z,2.10
2022-10-17T03:57:48.503Z,2.00
2022-10-17T04:00:19.705Z,1.80
2022-10-17T04:02:55.567Z,1.80
2022-10-17T04:05:24.003Z,2.10
2022-10-17T04:07:52.561Z,2.20
2022-10-17T04:10:27.972Z,2.03
2022-10-17T04:12:56.552Z,2.70
2022-10-17T04:15:24.820Z,2.20
2022-10-17T04:17:53.705Z,2.00
2022-10-17T04:20:22.480Z,2.00
2022-10-17T04:22:50.952Z,1.97
2022-10-17T04:25:19.416Z,2.17
2022-10-17T04:27:51.495Z,2.30
2022-10-17T04:30:20.820Z,2.27
2022-10-17T04:32:48.925Z,2.37
2022-10-17T04:35:23.121Z,2.00
2022-10-17T04:38:01.937Z,2.50
2022-10-17T04:40:30.350Z,2.00
2022-10-17T04:43:00.136Z,2.17
2022-10-17T04:45:35.286Z,2.30
2022-10-17T04:48:07.015Z,2.20
2022-10-17T04:50:35.501Z,2.27
2022-10-17T04:53:27.103Z,2.00
2022-10-17T04:55:56.068Z,2.07
2022-10-17T04:58:26.051Z,2.47
2022-10-17T05:00:54.428Z,2.97
2022-10-17T05:03:26.924Z,2.60
2022-10-17T05:05:55.212Z,2.43
2022-10-17T05:08:25.218Z,2.07
2022-10-17T05:10:53.824Z,2.90
2022-10-17T05:13:22.045Z,3.77
2022-10-17T05:15:51.887Z,2.50
2022-10-17T05:18:20.100Z,2.60
2022-10-17T05:20:49.399Z,2.17
2022-10-17T05:23:17.851Z,1.90
2022-10-17T05:25:46.044Z,2.53
2022-10-17T05:28:14.525Z,2.17
2022-10-17T05:30:44.447Z,2.83
2022-10-17T05:33:14.331Z,2.77
2022-10-17T05:35:42.688Z,2.40
2022-10-17T05:38:13.126Z,2.47
2022-10-17T05:40:43.678Z,2.47
2022-10-17T05:43:12.102Z,2.27
2022-10-17T05:45:40.479Z,2.50
2022-10-17T05:48:15.112Z,2.50
2022-10-17T05:50:43.379Z,3.23
2022-10-17T05:53:17.699Z,2.70
2022-10-17T05:55:58.042Z,2.73
2022-10-17T06:01:30.756Z,2.50
2022-10-17T06:04:00.749Z,3.80
2022-10-17T06:06:29.097Z,2.10
2022-10-17T06:08:57.939Z,2.30
2022-10-17T06:11:32.281Z,2.10
2022-10-17T06:14:00.794Z,2.20
2022-10-17T06:16:31.824Z,2.10
2022-10-17T06:19:02.156Z,2.30
2022-10-17T06:21:34.339Z,2.40
2022-10-17T06:24:10.387Z,2.33
2022-10-17T06:26:41.858Z,2.50
2022-10-17T06:29:12.149Z,2.30
2022-10-17T06:31:52.714Z,2.47
2022-10-17T06:34:23.142Z,2.20
2022-10-17T06:36:51.373Z,2.20
2022-10-17T06:39:21.355Z,2.87
2022-10-17T06:41:58.112Z,3.90
2022-10-17T06:44:41.252Z,3.10
2022-10-17T06:47:24.307Z,3.53
2022-10-17T06:49:59.030Z,4.33
2022-10-17T06:52:42.443Z,5.03
2022-10-17T06:55:29.798Z,4.47
2022-10-17T06:58:15.466Z,5.63
2022-10-17T07:01:01.305Z,5.73
2022-10-17T07:03:30.990Z,4.83
2022-10-17T07:06:01.126Z,3.20
2022-10-17T07:08:30.189Z,2.33
2022-10-17T07:11:10.678Z,2.70
2022-10-17T07:13:39.454Z,2.73
2022-10-17T07:16:09.772Z,2.70
2022-10-17T07:18:39.763Z,2.67
2022-10-17T07:21:10.444Z,4.10
2022-10-17T07:23:41.798Z,3.10
2022-10-17T07:26:14.278Z,3.00
2022-10-17T07:28:47.935Z,4.00
2022-10-17T07:31:26.477Z,3.13
2022-10-17T07:33:54.911Z,2.00
2022-10-17T07:36:24.662Z,2.50
2022-10-17T07:38:52.843Z,1.90
2022-10-17T07:41:22.582Z,2.03
2022-10-17T07:43:51.972Z,2.07
2022-10-17T07:46:24.291Z,1.73
2022-10-17T07:48:52.519Z,2.10
2022-10-17T07:51:23.980Z,1.83
2022-10-17T07:53:52.469Z,1.73
2022-10-17T07:56:24.664Z,1.90
2022-10-17T07:58:54.355Z,2.47
2022-10-17T08:01:22.617Z,1.80
2022-10-17T08:03:51.104Z,2.63
2022-10-17T08:06:20.105Z,2.63
2022-10-17T08:08:50.067Z,4.37
2022-10-17T08:11:18.385Z,4.40
2022-10-17T08:13:46.456Z,3.13
2022-10-17T08:16:15.353Z,2.30
2022-10-17T08:18:44.955Z,2.90
2022-10-17T08:21:14.518Z,7.17
2022-10-17T08:23:43.083Z,6.63
2022-10-17T08:26:17.158Z,5.77
2022-10-17T08:28:45.783Z,4.35
2022-10-17T08:31:18.582Z,4.77
2022-10-17T08:33:48.431Z,3.78
2022-10-17T08:36:20.251Z,3.87
2022-10-17T08:38:52.630Z,2.75
2022-10-17T08:41:46.199Z,4.00
2022-10-17T08:44:32.499Z,4.60
2022-10-17T08:47:07.504Z,3.83
2022-10-17T08:49:47.971Z,3.30
2022-10-17T08:52:30.852Z,2.63
2022-10-17T08:54:59.602Z,2.50
2022-10-17T08:57:29.792Z,2.00
2022-10-17T08:59:58.119Z,2.25
2022-10-17T09:02:55.404Z,1.98
2022-10-17T09:05:41.056Z,1.67
2022-10-17T09:08:26.335Z,2.10
2022-10-17T09:10:59.880Z,1.88
2022-10-17T09:13:49.188Z,2.15
2022-10-17T09:16:54.993Z,2.25
2022-10-17T09:19:30.625Z,2.03
2022-10-17T09:22:02.511Z,2.42
2022-10-17T09:24:41.241Z,1.70
2022-10-17T09:27:23.766Z,2.00
2022-10-17T09:30:43.603Z,1.98
2022-10-17T09:33:28.280Z,1.77
2022-10-17T09:36:07.654Z,1.92
2022-10-17T09:38:42.856Z,2.38
2022-10-17T09:44:21.623Z,2.10
2022-10-17T09:47:25.606Z,2.20
2022-10-17T09:49:54.333Z,1.80
2022-10-17T09:52:29.623Z,2.50
2022-10-17T09:55:05.964Z,2.50
2022-10-17T09:57:56.374Z,1.88
2022-10-17T10:00:28.814Z,2.10
2022-10-17T10:03:16.871Z,1.98
2022-10-17T10:06:02.663Z,1.83
2022-10-17T10:08:34.892Z,1.90
2022-10-17T10:11:13.501Z,2.22
2022-10-17T10:13:43.911Z,2.35
2022-10-17T10:16:22.248Z,2.20
2022-10-17T10:18:53.613Z,2.05
2022-10-17T10:21:28.392Z,2.35
2022-10-17T10:24:12.951Z,2.00
2022-10-17T10:26:45.781Z,1.98
2022-10-17T10:29:32.275Z,2.38
2022-10-17T10:32:11.645Z,2.08
2022-10-17T10:34:56.498Z,2.00
2022-10-17T10:37:30.199Z,2.08
2022-10-17T10:40:02.484Z,2.22
2022-10-17T10:42:36.391Z,2.05
2022-10-17T10:45:35.879Z,1.67
2022-10-17T10:48:20.798Z,1.55
2022-10-17T10:50:55.378Z,1.92
2022-10-17T10:53:39.076Z,2.05
2022-10-17T10:56:18.111Z,1.70
2022-10-17T10:59:02.621Z,1.58
2022-10-17T11:01:39.591Z,1.75
2022-10-17T11:04:24.300Z,1.63
2022-10-17T11:07:06.039Z,1.67
2022-10-17T11:09:52.336Z,1.90
2022-10-17T11:12:26.653Z,1.40
2022-10-17T11:15:04.284Z,1.33
2022-10-17T11:17:41.860Z,2.15
2022-10-17T11:20:23.452Z,1.80
2022-10-17T15:45:55.659Z,2.47
2022-10-17T15:48:32.078Z,2.28
2022-10-17T15:51:01.139Z,2.20
2022-10-17T15:53:29.362Z,2.25
2022-10-17T15:55:57.870Z,2.60
2022-10-17T15:58:28.385Z,2.40
2022-10-17T16:00:56.798Z,2.30
2022-10-17T16:03:25.041Z,1.98
2022-10-17T16:05:54.527Z,2.70
2022-10-17T16:08:22.609Z,3.78
2022-10-17T16:10:52.356Z,3.83
2022-10-17T16:13:24.279Z,2.95
2022-10-17T16:15:52.815Z,3.95
2022-10-17T16:18:21.209Z,3.72
2022-10-17T16:20:49.528Z,3.22
2022-10-17T16:23:19.043Z,2.92
2022-10-17T16:25:47.441Z,3.20
2022-10-17T16:28:15.644Z,2.70
2022-10-17T16:30:46.230Z,2.92
2022-10-17T16:33:14.662Z,2.80
2022-10-17T16:35:43.274Z,3.33
2022-10-17T16:38:11.475Z,3.00
2022-10-17T16:40:41.088Z,3.47
2022-10-17T16:43:12.947Z,3.03
2022-10-17T16:45:42.028Z,3.20
2022-10-17T16:48:12.687Z,3.30
2022-10-17T16:50:41.623Z,2.60
2022-10-17T16:53:09.807Z,3.10
2022-10-17T16:55:37.896Z,3.40
2022-10-17T16:58:07.402Z,2.95
2022-10-17T17:00:37.277Z,3.03
2022-10-17T17:03:06.808Z,3.00
2022-10-17T17:05:35.360Z,2.88
2022-10-17T17:08:04.940Z,2.92
2022-10-17T17:10:35.535Z,3.65
2022-10-17T17:13:04.699Z,3.27
2022-10-17T17:15:34.208Z,3.50
2022-10-17T17:18:05.637Z,3.17
2022-10-17T17:20:34.858Z,3.03
2022-10-17T17:23:03.652Z,2.53
2022-10-17T17:25:32.117Z,2.53
2022-10-17T17:28:00.330Z,2.90
2022-10-17T17:30:29.660Z,3.00
2022-10-17T17:32:59.984Z,2.90
2022-10-17T17:35:29.385Z,2.95
2022-10-17T17:37:57.763Z,3.20
2022-10-17T17:40:26.076Z,2.80
2022-10-17T17:42:54.713Z,2.60
2022-10-17T17:45:22.991Z,2.80
2022-10-17T17:47:51.783Z,2.80
2022-10-17T17:50:22.056Z,2.70
2022-10-17T17:52:51.289Z,3.20
2022-10-17T17:55:19.842Z,3.20
2022-10-17T17:57:47.984Z,2.92
2022-10-17T18:00:17.003Z,3.42
2022-10-17T18:02:45.152Z,2.50
2022-10-17T18:05:13.607Z,2.90
2022-10-17T18:07:43.132Z,3.42
2022-10-17T18:12:43.945Z,3.20
2022-10-17T18:15:13.294Z,3.40
2022-10-17T18:17:41.762Z,3.20
2022-10-17T18:20:11.283Z,3.20
2022-10-17T18:22:39.483Z,3.75
2022-10-17T18:25:09.836Z,3.45
2022-10-17T18:27:38.043Z,3.08
2022-10-17T18:30:08.472Z,2.90
2022-10-17T18:32:37.089Z,3.13
2022-10-17T18:35:05.927Z,2.97
2022-10-17T18:37:34.123Z,3.20
2022-10-17T18:40:03.153Z,3.30
2022-10-17T18:42:33.216Z,3.43
2022-10-17T18:45:03.356Z,3.25
2022-10-17T18:47:31.982Z,3.05
2022-10-17T18:50:00.291Z,3.20
2022-10-17T18:52:28.459Z,3.15
2022-10-17T18:54:56.510Z,3.17
2022-10-17T18:57:26.222Z,2.50
2022-10-17T18:59:56.037Z,3.50
2022-10-17T19:02:24.126Z,3.15
2022-10-17T19:04:52.249Z,3.58
2022-10-17T19:07:20.583Z,2.75
2022-10-17T19:09:49.791Z,2.67
2022-10-17T19:12:18.282Z,2.78
2022-10-17T19:14:46.723Z,2.90
2022-10-17T19:17:16.510Z,2.88
2022-10-17T19:19:44.853Z,3.10
2022-10-17T19:22:13.115Z,2.97
2022-10-17T19:24:41.648Z,3.03
2022-10-17T19:27:10.551Z,2.67
2022-10-17T19:29:43.327Z,3.20
2022-10-17T19:32:16.720Z,2.90
2022-10-17T19:34:48.852Z,2.80
2022-10-17T19:37:17.239Z,3.78
2022-10-17T19:39:45.508Z,3.10
2022-10-17T19:42:14.223Z,2.70
2022-10-17T19:44:42.478Z,2.38
2022-10-17T19:47:10.593Z,2.80
2022-10-17T19:49:38.984Z,2.20
2022-10-17T19:52:08.713Z,2.88
2022-10-17T19:54:38.856Z,2.42
2022-10-17T19:57:09.641Z,2.90
2022-10-17T19:59:38.824Z,2.38
2022-10-17T20:02:07.281Z,2.38
2022-10-17T20:04:37.549Z,2.80
2022-10-17T20:07:11.469Z,2.92
2022-10-17T20:09:39.590Z,3.03
2022-10-17T20:12:09.569Z,3.28
2022-10-17T20:14:41.022Z,2.50
2022-10-17T20:17:09.461Z,2.60
2022-10-17T20:19:37.648Z,2.57
2022-10-17T20:22:05.706Z,2.60
2022-10-17T20:24:35.202Z,3.20
2022-10-17T20:27:03.328Z,2.50
2022-10-17T20:29:32.003Z,2.40
2022-10-17T20:32:00.853Z,2.90
2022-10-17T20:34:29.468Z,2.80
2022-10-17T20:36:58.004Z,2.45
2022-10-17T20:39:26.134Z,2.63
2022-10-17T20:41:55.777Z,2.53
2022-10-17T20:44:24.152Z,2.55
2022-10-17T20:47:01.631Z,2.60
2022-10-17T20:49:31.697Z,3.33
2022-10-17T20:52:00.730Z,2.40
2022-10-17T20:54:29.678Z,2.63
2022-10-17T20:57:02.438Z,2.70
2022-10-17T20:59:35.176Z,2.60
2022-10-17T21:02:04.206Z,2.80
2022-10-17T21:04:46.047Z,2.70
2022-10-17T21:07:15.838Z,2.85
2022-10-17T21:09:45.819Z,2.50
2022-10-17T21:12:25.777Z,2.93
2022-10-17T21:15:04.138Z,2.85
2022-10-17T21:17:32.225Z,2.87
2022-10-17T21:20:00.854Z,3.10
2022-10-17T21:22:29.247Z,3.17
2022-10-17T21:24:57.617Z,3.00
2022-10-17T21:27:27.240Z,2.80
2022-10-17T21:29:55.766Z,2.60
2022-10-17T21:32:33.517Z,2.60
2022-10-17T21:35:12.904Z,2.80
2022-10-17T21:37:41.217Z,3.10
2022-10-17T21:40:11.195Z,2.70
2022-10-17T21:42:41.376Z,2.65
2022-10-17T21:45:15.809Z,2.70
2022-10-17T21:48:13.586Z,2.88
2022-10-17T21:50:42.531Z,3.20
2022-10-17T21:53:10.768Z,2.80
2022-10-17T21:55:39.438Z,2.77
2022-10-17T21:58:09.370Z,2.95
2022-10-17T22:00:37.717Z,3.20
2022-10-17T22:03:07.538Z,3.40
2022-10-17T22:05:35.588Z,3.10
2022-10-17T22:08:04.400Z,3.10
2022-10-17T22:10:33.333Z,3.28
2022-10-17T22:13:01.790Z,2.88
2022-10-17T22:15:32.116Z,2.47
2022-10-17T22:18:00.345Z,2.60
2022-10-17T22:20:29.053Z,2.30
2022-10-17T22:22:57.229Z,2.42
2022-10-17T22:25:25.457Z,2.30
2022-10-17T22:27:54.451Z,2.72
2022-10-17T22:30:23.289Z,2.60
2022-10-17T22:32:52.725Z,2.30
2022-10-17T22:35:21.294Z,2.55
2022-10-17T22:37:49.390Z,2.57
2022-10-17T22:40:17.652Z,2.30
2022-10-17T22:42:46.157Z,2.40
2022-10-17T22:45:14.361Z,2.20
2022-10-17T22:47:42.404Z,2.35
2022-10-17T22:50:12.487Z,2.42
2022-10-17T22:52:40.601Z,2.63
2022-10-17T22:55:09.906Z,2.40
2022-10-17T22:57:38.426Z,2.40
2022-10-17T23:00:08.749Z,2.28
2022-10-17T23:02:37.114Z,2.40
2022-10-17T23:05:07.718Z,2.17
2022-10-17T23:07:37.805Z,2.30
2022-10-17T23:10:07.536Z,2.22
2022-10-17T23:12:35.690Z,2.40
2022-10-17T23:15:04.597Z,2.70
2022-10-17T23:17:32.779Z,2.50
2022-10-17T23:20:01.262Z,2.83
2022-10-17T23:22:29.648Z,2.90
2022-10-17T23:25:00.247Z,2.50
2022-10-17T23:29:56.389Z,2.22
2022-10-17T23:32:24.417Z,2.70
2022-10-17T23:34:53.036Z,2.30
2022-10-17T23:37:21.803Z,2.30
2022-10-17T23:39:50.417Z,2.35
2022-10-17T23:42:19.888Z,2.22
2022-10-17T23:44:47.973Z,2.38
2022-10-17T23:47:16.667Z,2.42
2022-10-17T23:49:44.820Z,2.22
2022-10-17T23:52:12.957Z,2.00
2022-10-17T23:57:14.939Z,2.13
2022-10-17T23:59:44.394Z,2.30
